Time;durP1;ratioP1;P1;durP2;ratioP2;P2;SDS_P1;SDS_P2;PMS_P1;PMS_P2;Temp;Humidity;BMP_temperature;BMP_pressure;BME280_temperature;BME280_humidity;BME280_pressure;Samples;Min_cycle;Max_cycle;Signal;HPM_P1;HPM_P2
2024/02/03 00:02:16;;;;;;;;;;;;;;;17.40;38.14;101742.47;5024200;28;1008;-44
2024/02/03 00:04:42;;;;;;;;;;;;;;;16.83;39.20;101746.31;5016882;28;1095;-46
2024/02/03 00:07:07;;;;;;;;;;;;;;;17.24;38.74;101746.97;5016270;28;1030;-44
2024/02/03 00:09:33;;;;;;;;;;;;;;;17.81;37.44;101740.22;5021778;28;1036;-47
2024/02/03 00:11:58;;;;;;;;;;;;;;;16.85;39.31;101735.94;5024164;28;1036;-42
2024/02/03 00:14:24;;;;;;;;;;;;;;;16.53;39.60;101739.28;5021832;28;1187;-45
2024/02/03 00:16:49;;;;;;;;;;;;;;;17.85;37.31;101746.03;5017871;28;2203;-49
2024/02/03 00:19:15;;;;;;;;;;;;;;;17.19;38.42;101739.47;5033311;28;1115;-44
2024/02/03 00:21:40;;;;;;;;;;;;;;;16.56;39.99;101747.00;5020564;28;1001;-44
2024/02/03 00:24:06;;;;;;;;;;;;;;;16.77;39.53;101743.53;5020249;28;980;-45
2024/02/03 00:26:32;;;;;;;;;;;;;;;18.47;36.08;101748.31;5031792;28;1445;-45
2024/02/03 00:28:57;;;;;;;;;;;;;;;17.14;38.67;101749.56;5022140;28;1171;-42
2024/02/03 00:31:23;;;;;;;;;;;;;;;16.67;39.59;101751.59;5020264;28;1121;-43
2024/02/03 00:33:48;;;;;;;;;;;;;;;18.02;36.99;101751.47;5020194;28;1070;-43
2024/02/03 00:36:23;;;;;;;;;;;;;;;17.27;38.08;101746.44;5020167;28;1051;-44
2024/02/03 00:38:49;;;;;;;;;;;;;;;16.64;39.63;101743.84;5020212;28;1917;-44
2024/02/03 00:41:14;;;;;;;;;;;;;;;17.30;38.26;101745.94;5019742;28;1059;-45
2024/02/03 00:43:40;;;;;;;;;;;;;;;17.52;37.62;101742.38;5020050;28;1081;-44
2024/02/03 00:46:05;;;;;;;;;;;;;;;16.71;39.40;101739.03;5019794;28;2349;-43
2024/02/03 00:48:31;;;;;;;;;;;;;;;17.44;38.04;101736.19;5025236;28;1024;-44
2024/02/03 00:50:57;;;;;;;;;;;;;;;18.39;36.02;101731.44;5027513;28;1059;-42
2024/02/03 00:53:22;;;;;;;;;;;;;;;16.97;38.93;101731.22;5032947;28;1114;-42
2024/02/03 00:55:48;;;;;;;;;;;;;;;16.63;39.40;101731.19;5020441;28;1126;-43
2024/02/03 00:58:13;;;;;;;;;;;;;;;16.38;40.08;101724.22;5025451;28;1989;-44
2024/02/03 01:00:39;;;;;;;;;;;;;;;18.15;36.69;101726.28;5026707;28;1094;-42
2024/02/03 01:03:04;;;;;;;;;;;;;;;17.33;38.19;101722.59;5024842;28;1148;-45
2024/02/03 01:05:30;;;;;;;;;;;;;;;16.68;39.35;101722.22;5027392;28;989;-42
2024/02/03 01:07:55;;;;;;;;;;;;;;;17.79;37.58;101721.22;5019597;28;1052;-42
2024/02/03 01:10:21;;;;;;;;;;;;;;;17.85;37.23;101726.78;5034301;28;1106;-44
2024/02/03 01:12:46;;;;;;;;;;;;;;;16.84;39.04;101715.03;5019204;28;1171;-41
2024/02/03 01:15:12;;;;;;;;;;;;;;;17.85;37.38;101724.03;5019005;28;2273;-44
2024/02/03 01:17:38;;;;;;;;;;;;;;;18.13;36.74;101723.78;5019398;28;1915;-45
2024/02/03 01:20:04;;;;;;;;;;;;;;;17.00;38.83;101714.22;5030515;28;1075;-42
2024/02/03 01:22:29;;;;;;;;;;;;;;;17.14;38.79;101716.56;5025424;28;1004;-43
2024/02/03 01:24:55;;;;;;;;;;;;;;;17.53;37.91;101716.50;5038764;28;1201;-47
2024/02/03 01:27:20;;;;;;;;;;;;;;;16.75;39.24;101706.41;5025431;28;1031;-43
2024/02/03 01:29:46;;;;;;;;;;;;;;;16.53;39.80;101709.09;5026519;28;1020;-48
2024/02/03 01:32:11;;;;;;;;;;;;;;;17.47;37.94;101706.56;5018624;28;1020;-45
2024/02/03 01:34:37;;;;;;;;;;;;;;;17.88;36.97;101718.00;5030740;28;1025;-45
2024/02/03 01:37:03;;;;;;;;;;;;;;;16.86;39.31;101707.38;5025459;28;1905;-46
2024/02/03 01:39:28;;;;;;;;;;;;;;;17.71;37.57;101709.84;5027026;28;1063;-45
2024/02/03 01:41:54;;;;;;;;;;;;;;;17.69;37.21;101704.59;5032041;28;1037;-45
2024/02/03 01:44:19;;;;;;;;;;;;;;;16.83;39.04;101697.72;5018488;28;1067;-43
2024/02/03 01:46:45;;;;;;;;;;;;;;;17.37;38.41;101699.00;5018603;28;2281;-45
2024/02/03 01:49:11;;;;;;;;;;;;;;;17.65;37.44;101703.44;5018740;28;1167;-43
2024/02/03 01:51:37;;;;;;;;;;;;;;;16.81;39.03;101704.56;5018576;28;1120;-46
2024/02/03 01:54:03;;;;;;;;;;;;;;;18.20;36.64;101706.22;5019029;28;1253;-47
2024/02/03 01:56:29;;;;;;;;;;;;;;;17.20;38.35;101705.41;5021837;28;1150;-44
2024/02/03 01:58:54;;;;;;;;;;;;;;;16.67;39.34;101704.09;5027038;28;1987;-44
2024/02/03 02:01:20;;;;;;;;;;;;;;;17.36;38.20;101689.94;5018092;28;1083;-43
2024/02/03 02:03:45;;;;;;;;;;;;;;;17.51;37.71;101691.19;5028227;28;1078;-44
2024/02/03 02:06:11;;;;;;;;;;;;;;;16.71;39.52;101695.06;5024667;28;1475;-44
2024/02/03 02:08:37;;;;;;;;;;;;;;;17.14;38.56;101702.84;5026905;28;1020;-45
2024/02/03 02:11:12;;;;;;;;;;;;;;;18.59;35.86;101694.97;5018390;28;1055;-43
2024/02/03 02:13:38;;;;;;;;;;;;;;;17.18;38.29;101698.50;5030696;28;1135;-47
2024/02/03 02:16:03;;;;;;;;;;;;;;;16.64;39.49;101697.16;5018831;28;2129;-42
2024/02/03 02:18:29;;;;;;;;;;;;;;;17.88;37.41;101696.81;5018389;28;1914;-41
2024/02/03 02:20:55;;;;;;;;;;;;;;;17.48;37.82;101688.97;5030630;28;1044;-46
2024/02/03 02:23:21;;;;;;;;;;;;;;;17.10;38.68;101700.59;5017739;28;1028;-42
2024/02/03 02:25:47;;;;;;;;;;;;;;;18.70;35.69;101702.19;5017828;28;1222;-42
2024/02/03 02:28:12;;;;;;;;;;;;;;;17.20;38.44;101696.34;5018051;28;1174;-43
2024/02/03 02:30:38;;;;;;;;;;;;;;;17.91;37.41;101695.50;5024007;28;1011;-42
2024/02/03 02:33:03;;;;;;;;;;;;;;;18.10;36.64;101690.44;5025261;28;1027;-44
2024/02/03 02:35:29;;;;;;;;;;;;;;;17.20;38.62;101696.34;5023645;28;1085;-42
2024/02/03 02:37:54;;;;;;;;;;;;;;;17.69;37.74;101699.09;5024433;28;1914;-46
2024/02/03 02:40:20;;;;;;;;;;;;;;;17.98;36.84;101687.88;5016978;28;1140;-44
2024/02/03 02:42:45;;;;;;;;;;;;;;;17.07;38.76;101692.06;5017786;28;1139;-44
2024/02/03 02:45:11;;;;;;;;;;;;;;;16.72;39.38;101699.50;5017362;28;2111;-47
2024/02/03 02:47:36;;;;;;;;;;;;;;;16.54;39.82;101695.09;5017775;28;1036;-43
2024/02/03 02:50:03;;;;;;;;;;;;;;;17.14;38.81;101689.94;5030505;28;1108;-43
2024/02/03 02:52:29;;;;;;;;;;;;;;;17.93;37.07;101687.81;5017408;28;1071;-43
2024/02/03 02:54:55;;;;;;;;;;;;;;;16.82;39.10;101689.75;5017794;28;1056;-44
2024/02/03 02:57:21;;;;;;;;;;;;;;;16.50;39.72;101688.44;5028650;28;1981;-45
2024/02/03 02:59:46;;;;;;;;;;;;;;;17.90;37.25;101678.13;5018653;28;1138;-45
2024/02/03 03:02:12;;;;;;;;;;;;;;;17.85;37.01;101680.84;5017571;28;1123;-46
2024/02/03 03:04:38;;;;;;;;;;;;;;;17.00;38.68;101677.63;5017720;28;1115;-43
2024/02/03 03:07:03;;;;;;;;;;;;;;;16.60;39.70;101682.28;5017279;28;1079;-41
2024/02/03 03:09:29;;;;;;;;;;;;;;;18.41;36.25;101682.44;5029621;28;1071;-42
2024/02/03 03:11:54;;;;;;;;;;;;;;;17.15;38.61;101682.50;5027665;28;1148;-43
2024/02/03 03:14:20;;;;;;;;;;;;;;;16.69;39.51;101678.03;5018655;28;1028;-44
2024/02/03 03:16:47;;;;;;;;;;;;;;;17.53;37.87;101678.00;5029169;28;1100;-41
2024/02/03 03:19:12;;;;;;;;;;;;;;;17.94;36.79;101678.47;5023290;28;1985;-42
2024/02/03 03:21:38;;;;;;;;;;;;;;;16.85;38.94;101676.31;5024695;28;861;-42
2024/02/03 03:24:03;;;;;;;;;;;;;;;17.74;37.56;101676.31;5021878;28;1112;-44
2024/02/03 03:26:29;;;;;;;;;;;;;;;17.68;37.37;101658.91;5037319;28;1128;-43
2024/02/03 03:28:54;;;;;;;;;;;;;;;16.74;39.07;101661.59;5018037;28;1074;-45
2024/02/03 03:31:20;;;;;;;;;;;;;;;17.02;38.86;101664.50;5017259;28;1172;-42
2024/02/03 03:33:45;;;;;;;;;;;;;;;18.21;36.11;101664.66;5029587;28;1134;-44
2024/02/03 03:36:11;;;;;;;;;;;;;;;16.99;38.60;101663.09;5017111;28;1055;-41
2024/02/03 03:38:42;;;;;;;;;;;;;;;17.84;37.31;101659.91;5016300;28;1983;-43
2024/02/03 03:41:09;;;;;;;;;;;;;;;17.51;37.55;101663.69;5028926;28;1044;-43
2024/02/03 03:43:35;;;;;;;;;;;;;;;16.79;39.09;101654.53;5023584;28;1094;-45
2024/02/03 03:46:00;;;;;;;;;;;;;;;16.57;39.52;101653.41;5024387;28;878;-45
2024/02/03 03:48:26;;;;;;;;;;;;;;;17.38;38.23;101657.50;5017097;28;1072;-42
2024/02/03 03:50:51;;;;;;;;;;;;;;;17.38;37.66;101649.25;5016382;28;1105;-42
2024/02/03 03:53:17;;;;;;;;;;;;;;;17.21;38.45;101654.03;5016371;28;1176;-42
2024/02/03 03:55:42;;;;;;;;;;;;;;;18.71;35.36;101648.75;5028591;28;1059;-43
2024/02/03 03:58:08;;;;;;;;;;;;;;;17.34;38.02;101639.06;5031127;28;1910;-46
2024/02/03 04:00:33;;;;;;;;;;;;;;;16.88;38.90;101628.28;5027960;28;1079;-45
2024/02/03 04:02:59;;;;;;;;;;;;;;;18.02;36.80;101633.97;5031574;28;1147;-43
2024/02/03 04:05:25;;;;;;;;;;;;;;;17.61;37.32;101631.66;5028009;28;1047;-45
2024/02/03 04:07:51;;;;;;;;;;;;;;;16.85;38.84;101637.06;5017614;28;1070;-44
2024/02/03 04:10:17;;;;;;;;;;;;;;;17.85;37.01;101624.97;5016508;28;857;-42
2024/02/03 04:12:42;;;;;;;;;;;;;;;18.03;36.44;101616.34;5034519;28;1175;-45
2024/02/03 04:15:08;;;;;;;;;;;;;;;16.96;38.78;101622.38;5025075;28;1012;-43
2024/02/03 04:17:34;;;;;;;;;;;;;;;16.64;39.25;101624.94;5016899;28;1902;-44
2024/02/03 04:19:59;;;;;;;;;;;;;;;16.41;39.73;101635.88;5022920;28;1128;-48
2024/02/03 04:22:25;;;;;;;;;;;;;;;17.87;36.83;101618.13;5016491;28;997;-47
2024/02/03 04:24:50;;;;;;;;;;;;;;;17.43;37.69;101619.09;5021073;28;1059;-44
2024/02/03 04:27:16;;;;;;;;;;;;;;;17.58;37.45;101612.06;5024967;28;1558;-46
2024/02/03 04:29:41;;;;;;;;;;;;;;;18.89;35.10;101613.63;5021051;28;1032;-45
2024/02/03 04:32:07;;;;;;;;;;;;;;;17.33;37.91;101620.88;5024706;28;1411;-43
2024/02/03 04:34:32;;;;;;;;;;;;;;;16.89;38.59;101610.75;5023493;28;1185;-47
2024/02/03 04:36:58;;;;;;;;;;;;;;;16.58;39.45;101613.06;5031419;28;1081;-48
2024/02/03 04:39:23;;;;;;;;;;;;;;;18.00;36.80;101611.38;5025874;28;1982;-46
2024/02/03 04:41:49;;;;;;;;;;;;;;;16.94;38.85;101605.31;5021055;28;1172;-47
2024/02/03 04:44:15;;;;;;;;;;;;;;;16.59;39.24;101595.50;5025839;28;1113;-50
2024/02/03 04:46:40;;;;;;;;;;;;;;;18.32;36.18;101605.00;5019165;28;1079;-52
2024/02/03 04:49:06;;;;;;;;;;;;;;;16.91;38.73;101594.84;5015928;28;1144;-46
2024/02/03 04:51:31;;;;;;;;;;;;;;;16.51;39.75;101595.91;5015546;28;1100;-50
2024/02/03 04:53:57;;;;;;;;;;;;;;;18.23;36.42;101587.31;5016519;28;1132;-49
2024/02/03 04:56:22;;;;;;;;;;;;;;;16.98;38.60;101589.97;5015570;28;957;-54
2024/02/03 04:58:48;;;;;;;;;;;;;;;17.16;38.21;101585.25;5019753;28;1977;-49
2024/02/03 05:01:14;;;;;;;;;;;;;;;18.46;35.64;101586.91;5029299;28;1270;-48
2024/02/03 05:03:39;;;;;;;;;;;;;;;17.04;38.27;101605.44;5027301;28;1218;-50
2024/02/03 05:06:05;;;;;;;;;;;;;;;16.55;39.55;101597.94;5034952;28;1054;-45
2024/02/03 05:08:31;;;;;;;;;;;;;;;18.23;36.09;101588.16;5019509;28;1036;-46
2024/02/03 05:10:56;;;;;;;;;;;;;;;17.79;36.72;101585.59;5024321;28;1132;-44
2024/02/03 05:13:22;;;;;;;;;;;;;;;16.87;38.70;101593.66;5038534;28;1114;-44
2024/02/03 05:15:47;;;;;;;;;;;;;;;17.14;38.41;101588.25;5035139;28;1078;-46
2024/02/03 05:18:13;;;;;;;;;;;;;;;18.47;35.78;101593.28;5030096;28;1915;-44
2024/02/03 05:20:38;;;;;;;;;;;;;;;17.50;37.42;101601.53;5021996;28;1124;-48
2024/02/03 05:23:04;;;;;;;;;;;;;;;16.99;38.34;101599.06;5035497;28;1107;-44
2024/02/03 05:25:29;;;;;;;;;;;;;;;16.65;39.16;101602.72;5038381;28;1059;-45
2024/02/03 05:27:55;;;;;;;;;;;;;;;16.43;39.39;101606.25;5027982;28;1048;-45
2024/02/03 05:30:20;;;;;;;;;;;;;;;16.20;40.17;101598.22;5022746;28;1012;-44
2024/02/03 05:32:46;;;;;;;;;;;;;;;16.02;40.47;101593.81;5028040;28;1003;-41
2024/02/03 05:35:11;;;;;;;;;;;;;;;15.85;40.73;101594.66;5031943;28;998;-46
2024/02/03 05:37:37;;;;;;;;;;;;;;;15.66;40.94;101584.97;5028645;28;1905;-44
2024/02/03 05:40:03;;;;;;;;;;;;;;;15.45;41.21;101583.78;5035381;28;1063;-46
2024/02/03 05:42:30;;;;;;;;;;;;;;;15.40;41.55;101587.25;5018867;28;1052;-47
2024/02/03 05:44:56;;;;;;;;;;;;;;;16.95;38.42;101576.75;5031867;28;1504;-44
2024/02/03 05:47:22;;;;;;;;;;;;;;;16.96;38.27;101581.19;5035867;28;2605;-43
2024/02/03 05:49:47;;;;;;;;;;;;;;;16.12;39.86;101576.69;5022221;28;1186;-43
2024/02/03 05:52:13;;;;;;;;;;;;;;;15.86;40.37;101581.78;5028621;28;1137;-46
2024/02/03 05:54:38;;;;;;;;;;;;;;;15.60;40.94;101585.94;5038011;28;1086;-43
2024/02/03 05:57:04;;;;;;;;;;;;;;;15.99;40.17;101592.44;5038339;28;1980;-44
2024/02/03 05:59:29;;;;;;;;;;;;;;;17.41;37.38;101577.25;5036678;28;987;-45
2024/02/03 06:01:55;;;;;;;;;;;;;;;16.58;38.68;101572.69;5028793;28;1186;-47
2024/02/03 06:04:20;;;;;;;;;;;;;;;16.00;39.99;101574.06;5031173;28;1168;-43
2024/02/03 06:06:46;;;;;;;;;;;;;;;15.68;40.58;101580.91;5018794;28;1032;-46
2024/02/03 06:09:12;;;;;;;;;;;;;;;15.56;41.18;101578.22;5034156;28;1115;-43
2024/02/03 06:11:38;;;;;;;;;;;;;;;17.09;37.76;101575.25;5020225;28;919;-44
2024/02/03 06:14:03;;;;;;;;;;;;;;;17.14;37.77;101576.41;5020724;28;1100;-44
2024/02/03 06:16:29;;;;;;;;;;;;;;;16.20;39.54;101581.75;5037892;28;1031;-43
2024/02/03 06:18:55;;;;;;;;;;;;;;;15.86;40.48;101585.34;5022529;28;2594;-42
2024/02/03 06:21:20;;;;;;;;;;;;;;;15.60;40.80;101586.81;5026870;28;1076;-46
2024/02/03 06:23:46;;;;;;;;;;;;;;;16.76;38.64;101585.31;5021992;28;926;-43
2024/02/03 06:26:11;;;;;;;;;;;;;;;17.48;37.12;101579.81;5026901;28;1140;-45
2024/02/03 06:28:37;;;;;;;;;;;;;;;16.34;39.43;101577.59;5024811;28;1106;-43
2024/02/03 06:31:02;;;;;;;;;;;;;;;15.91;40.10;101581.88;5028759;28;1043;-44
2024/02/03 06:33:28;;;;;;;;;;;;;;;15.59;40.81;101581.56;5033337;28;1064;-48
2024/02/03 06:35:53;;;;;;;;;;;;;;;16.24;39.82;101585.66;5026950;28;941;-46
2024/02/03 06:38:19;;;;;;;;;;;;;;;17.49;37.09;101588.88;5035035;28;1985;-43
2024/02/03 06:40:44;;;;;;;;;;;;;;;16.68;38.41;101591.22;5026980;28;1036;-44
2024/02/03 06:43:10;;;;;;;;;;;;;;;16.03;40.10;101596.34;5021813;28;1106;-44
2024/02/03 06:45:36;;;;;;;;;;;;;;;15.76;40.83;101587.06;5017951;28;1124;-44
2024/02/03 06:48:01;;;;;;;;;;;;;;;15.51;41.15;101593.75;5030185;28;2508;-45
2024/02/03 06:50:27;;;;;;;;;;;;;;;17.00;38.01;101598.81;5026899;28;1435;-45
2024/02/03 06:52:52;;;;;;;;;;;;;;;17.26;37.53;101586.19;5036798;28;1028;-44
2024/02/03 06:55:18;;;;;;;;;;;;;;;16.23;39.40;101584.84;5037010;28;1059;-46
2024/02/03 06:57:43;;;;;;;;;;;;;;;15.80;40.37;101597.31;5034390;28;2017;-44
2024/02/03 07:00:10;;;;;;;;;;;;;;;15.50;40.92;101592.09;5028334;28;941;-44
2024/02/03 07:02:35;;;;;;;;;;;;;;;16.56;39.17;101576.78;5030876;28;1183;-44
2024/02/03 07:05:01;;;;;;;;;;;;;;;17.59;36.79;101583.50;5017504;28;1059;-43
2024/02/03 07:07:26;;;;;;;;;;;;;;;16.49;38.85;101576.97;5019392;28;1111;-43
2024/02/03 07:09:58;;;;;;;;;;;;;;;15.95;40.31;101584.94;5037368;28;1068;-43
2024/02/03 07:12:24;;;;;;;;;;;;;;;15.70;40.86;101589.72;5034212;28;1063;-42
2024/02/03 07:14:49;;;;;;;;;;;;;;;15.84;40.46;101592.19;5017175;28;1036;-45
2024/02/03 07:17:15;;;;;;;;;;;;;;;17.34;37.57;101586.81;5031241;28;2508;-43
2024/02/03 07:19:40;;;;;;;;;;;;;;;17.20;37.35;101592.72;5026328;28;1056;-46
2024/02/03 07:22:06;;;;;;;;;;;;;;;16.18;39.57;101603.97;5022264;28;1044;-46
2024/02/03 07:24:31;;;;;;;;;;;;;;;15.84;40.54;101601.22;5017087;28;1051;-44
2024/02/03 07:26:57;;;;;;;;;;;;;;;15.59;41.12;101606.25;5017400;28;1111;-45
2024/02/03 07:29:22;;;;;;;;;;;;;;;16.57;39.03;101590.25;5027685;28;1119;-45
2024/02/03 07:31:48;;;;;;;;;;;;;;;17.47;37.06;101580.88;5032834;28;1004;-46
2024/02/03 07:34:13;;;;;;;;;;;;;;;16.36;39.45;101583.66;5035047;28;1084;-46
2024/02/03 07:36:39;;;;;;;;;;;;;;;15.93;40.07;101578.88;5016861;28;1067;-42
2024/02/03 07:39:05;;;;;;;;;;;;;;;15.60;40.81;101570.34;5025812;28;1915;-42
2024/02/03 07:41:31;;;;;;;;;;;;;;;17.05;38.20;101568.63;5020981;28;1062;-43
2024/02/03 07:43:56;;;;;;;;;;;;;;;17.10;37.83;101568.69;5025464;28;1099;-42
2024/02/03 07:46:22;;;;;;;;;;;;;;;16.26;39.48;101564.31;5035575;28;1090;-40
2024/02/03 07:48:47;;;;;;;;;;;;;;;15.85;40.39;101572.72;5031094;28;2695;-45
2024/02/03 07:51:13;;;;;;;;;;;;;;;15.52;41.27;101568.84;5035854;28;1209;-40
2024/02/03 07:53:38;;;;;;;;;;;;;;;16.59;38.87;101559.78;5027503;28;1206;-42
2024/02/03 07:56:04;;;;;;;;;;;;;;;17.64;36.70;101547.75;5031235;28;1199;-42
2024/02/03 07:58:29;;;;;;;;;;;;;;;16.55;39.11;101547.66;5034082;28;1914;-45
2024/02/03 08:00:55;;;;;;;;;;;;;;;15.91;40.32;101548.97;5017826;28;1119;-45
2024/02/03 08:03:21;;;;;;;;;;;;;;;15.68;40.72;101567.22;5035826;28;1076;-42
2024/02/03 08:05:46;;;;;;;;;;;;;;;16.17;39.93;101563.06;5034604;28;1174;-42
2024/02/03 08:08:12;;;;;;;;;;;;;;;17.51;37.05;101561.97;5024072;28;1107;-46
2024/02/03 08:10:37;;;;;;;;;;;;;;;16.84;38.40;101558.47;5023409;28;1098;-45
2024/02/03 08:13:03;;;;;;;;;;;;;;;16.09;39.75;101550.59;5028825;28;1163;-45
2024/02/03 08:15:28;;;;;;;;;;;;;;;15.78;40.66;101550.09;5015975;28;1019;-44
2024/02/03 08:17:54;;;;;;;;;;;;;;;15.53;41.11;101539.53;5016928;28;2439;-41
2024/02/03 08:20:19;;;;;;;;;;;;;;;17.00;38.05;101530.13;5016639;28;1016;-41
2024/02/03 08:22:45;;;;;;;;;;;;;;;17.39;37.05;101532.72;5017285;28;1040;-45
2024/02/03 08:25:10;;;;;;;;;;;;;;;16.40;39.13;101537.31;5026592;28;1179;-43
2024/02/03 08:27:36;;;;;;;;;;;;;;;15.95;40.42;101544.63;5025938;28;1111;-44
2024/02/03 08:30:01;;;;;;;;;;;;;;;15.70;40.76;101550.50;5025327;28;1047;-47
2024/02/03 08:32:27;;;;;;;;;;;;;;;15.64;40.81;101540.53;5029536;28;1000;-45
2024/02/03 08:34:52;;;;;;;;;;;;;;;17.16;37.96;101542.09;5023199;28;1071;-45
2024/02/03 08:37:19;;;;;;;;;;;;;;;17.21;37.54;101541.34;5032732;28;1906;-46
2024/02/03 08:39:44;;;;;;;;;;;;;;;16.31;39.25;101544.31;5028228;28;1190;-45
2024/02/03 08:42:10;;;;;;;;;;;;;;;15.89;40.36;101540.13;5023331;28;1087;-45
2024/02/03 08:44:35;;;;;;;;;;;;;;;15.69;40.71;101540.63;5039867;28;1019;-45
2024/02/03 08:47:01;;;;;;;;;;;;;;;15.96;40.19;101537.22;5022908;28;1111;-45
2024/02/03 08:49:29;;;;;;;;;;;;;;;17.36;37.27;101525.00;5019648;28;2776;-43
2024/02/03 08:51:54;;;;;;;;;;;;;;;16.79;38.10;101528.19;5036685;28;1068;-43
2024/02/03 08:54:20;;;;;;;;;;;;;;;16.10;39.66;101515.75;5039931;28;1090;-46
2024/02/03 08:56:45;;;;;;;;;;;;;;;15.82;40.49;101509.31;5029897;28;1147;-43
2024/02/03 08:59:11;;;;;;;;;;;;;;;15.55;40.93;101505.28;5028933;28;1918;-47
2024/02/03 09:01:36;;;;;;;;;;;;;;;16.83;38.27;101504.59;5032967;28;1275;-44
2024/02/03 09:04:04;;;;;;;;;;;;;;;17.57;36.96;101511.41;5032809;28;1020;-47
2024/02/03 09:06:30;;;;;;;;;;;;;;;16.41;39.18;101504.13;5019669;28;1278;-46
2024/02/03 09:08:55;;;;;;;;;;;;;;;15.94;39.89;101504.56;5019741;28;1182;-46
2024/02/03 09:11:21;;;;;;;;;;;;;;;15.74;40.51;101508.63;5017901;28;1175;-45
2024/02/03 09:13:47;;;;;;;;;;;;;;;15.86;40.30;101513.22;5032525;28;1100;-44
2024/02/03 09:16:12;;;;;;;;;;;;;;;17.30;37.37;101504.03;5019700;28;1108;-44
2024/02/03 09:18:38;;;;;;;;;;;;;;;16.87;38.07;101486.53;5019882;28;2542;-46
2024/02/03 09:21:07;;;;;;;;;;;;;;;16.24;39.62;101492.34;5039065;28;1043;-47
2024/02/03 09:23:32;;;;;;;;;;;;;;;15.85;40.20;101489.59;5030274;28;1039;-49
2024/02/03 09:26:00;;;;;;;;;;;;;;;15.64;40.63;101486.53;5031765;28;1020;-43
2024/02/03 09:28:25;;;;;;;;;;;;;;;16.74;38.45;101474.03;5019329;28;1000;-43
2024/02/03 09:30:51;;;;;;;;;;;;;;;17.74;36.48;101470.00;5025831;28;1120;-46
2024/02/03 09:33:16;;;;;;;;;;;;;;;16.72;38.58;101470.72;5037995;28;1058;-47
2024/02/03 09:35:42;;;;;;;;;;;;;;;16.23;39.33;101458.59;5036723;28;1139;-45
2024/02/03 09:38:07;;;;;;;;;;;;;;;15.82;40.22;101444.34;5038372;28;1906;-44
2024/02/03 09:40:33;;;;;;;;;;;;;;;15.62;40.99;101436.59;5039213;28;1048;-43
2024/02/03 09:42:58;;;;;;;;;;;;;;;16.91;38.10;101427.25;5038328;28;1160;-45
2024/02/03 09:45:24;;;;;;;;;;;;;;;17.43;36.83;101415.63;5030628;28;1064;-48
2024/02/03 09:47:50;;;;;;;;;;;;;;;16.38;39.21;101392.09;5025682;28;2548;-46
2024/02/03 09:50:15;;;;;;;;;;;;;;;15.99;40.05;101381.22;5024963;28;1426;-43
2024/02/03 09:52:42;;;;;;;;;;;;;;;15.76;40.39;101373.19;5038387;28;1042;-45
2024/02/03 09:55:08;;;;;;;;;;;;;;;16.42;39.20;101367.69;5018804;28;1048;-45
2024/02/03 09:57:33;;;;;;;;;;;;;;;17.63;36.65;101356.38;5046801;28;1906;-45
2024/02/03 09:59:59;;;;;;;;;;;;;;;16.95;38.06;101354.22;5019696;28;1333;-45
2024/02/03 10:02:24;;;;;;;;;;;;;;;16.26;39.16;101353.00;5026734;28;1058;-45
2024/02/03 10:04:50;;;;;;;;;;;;;;;15.84;40.27;101343.44;5020650;28;1321;-43
2024/02/03 10:07:19;;;;;;;;;;;;;;;15.63;40.82;101344.22;5018518;28;1114;-45
2024/02/03 10:09:45;;;;;;;;;;;;;;;15.91;39.96;101343.25;5026138;28;1131;-44
2024/02/03 10:12:17;;;;;;;;;;;;;;;17.35;37.11;101330.91;5027237;28;1367;-41
2024/02/03 10:14:43;;;;;;;;;;;;;;;17.14;37.50;101331.84;5035274;28;1147;-49
2024/02/03 10:17:08;;;;;;;;;;;;;;;16.31;39.15;101336.56;5037457;28;2601;-44
2024/02/03 10:19:34;;;;;;;;;;;;;;;15.92;40.21;101331.19;5018074;28;1909;-41
2024/02/03 10:22:00;;;;;;;;;;;;;;;15.64;40.64;101323.94;5021834;28;1004;-41
2024/02/03 10:24:27;;;;;;;;;;;;;;;15.64;40.86;101322.03;5026154;28;1127;-44
2024/02/03 10:27:02;;;;;;;;;;;;;;;17.18;37.58;101319.22;5036407;28;1183;-45
2024/02/03 10:29:28;;;;;;;;;;;;;;;17.41;36.96;101307.84;5030621;28;1061;-46
2024/02/03 10:31:53;;;;;;;;;;;;;;;16.40;38.88;101302.09;5037842;28;1059;-45
2024/02/03 10:34:19;;;;;;;;;;;;;;;15.97;39.98;101292.03;5037470;28;1040;-42
2024/02/03 10:36:44;;;;;;;;;;;;;;;15.73;40.40;101290.34;5028716;28;929;-42
2024/02/03 10:39:10;;;;;;;;;;;;;;;16.00;39.72;101280.53;5031114;28;1913;-46
2024/02/03 10:41:38;;;;;;;;;;;;;;;17.43;37.10;101277.31;5025551;28;1100;-43
2024/02/03 10:44:05;;;;;;;;;;;;;;;16.90;37.97;101280.00;5036698;28;1075;-42
2024/02/03 10:46:31;;;;;;;;;;;;;;;16.16;39.39;101281.53;5036575;28;1036;-44
2024/02/03 10:48:56;;;;;;;;;;;;;;;15.81;40.24;101275.41;5025483;28;2900;-43
2024/02/03 10:51:23;;;;;;;;;;;;;;;15.57;40.54;101270.13;5025036;28;1020;-42
2024/02/03 10:53:59;;;;;;;;;;;;;;;16.03;39.66;101272.63;5036926;28;999;-45
2024/02/03 10:56:28;;;;;;;;;;;;;;;17.45;36.73;101256.72;5032105;28;1073;-45
2024/02/03 10:58:53;;;;;;;;;;;;;;;16.82;37.88;101264.03;5019758;28;1914;-42
2024/02/03 11:01:22;;;;;;;;;;;;;;;16.12;39.32;101262.03;5035360;28;1175;-45
2024/02/03 11:03:48;;;;;;;;;;;;;;;15.85;39.98;101261.97;5036804;28;1019;-42
2024/02/03 11:06:22;;;;;;;;;;;;;;;15.50;40.74;101253.06;5024043;28;1130;-43
2024/02/03 11:08:47;;;;;;;;;;;;;;;16.50;38.82;101253.88;5036693;28;1063;-45
2024/02/03 11:11:23;;;;;;;;;;;;;;;17.59;36.52;101254.31;5023769;28;1096;-44
2024/02/03 11:13:48;;;;;;;;;;;;;;;16.62;38.44;101256.44;5020249;28;991;-47
2024/02/03 11:16:14;;;;;;;;;;;;;;;16.01;39.56;101250.09;5029593;28;1127;-48
2024/02/03 11:18:42;;;;;;;;;;;;;;;15.68;40.42;101262.03;5030188;28;2454;-43
2024/02/03 11:21:08;;;;;;;;;;;;;;;15.48;40.80;101243.44;5023654;28;1041;-44
2024/02/03 11:23:33;;;;;;;;;;;;;;;16.79;38.02;101246.13;5024375;28;1120;-43
2024/02/03 11:25:59;;;;;;;;;;;;;;;17.60;36.61;101244.16;5034319;28;971;-43
2024/02/03 11:28:24;;;;;;;;;;;;;;;16.41;38.57;101245.25;5023057;28;1030;-44
2024/02/03 11:31:02;;;;;;;;;;;;;;;15.91;39.82;101252.75;5024869;28;1116;-45
2024/02/03 11:33:29;;;;;;;;;;;;;;;15.62;40.58;101239.22;5033618;28;1078;-44
2024/02/03 11:36:02;;;;;;;;;;;;;;;16.21;39.23;101223.97;5026232;28;1364;-45
2024/02/03 11:38:28;;;;;;;;;;;;;;;17.50;36.72;101222.94;5020421;28;1972;-44
2024/02/03 11:40:56;;;;;;;;;;;;;;;16.56;38.26;101207.00;5036132;28;1090;-41
2024/02/03 11:43:22;;;;;;;;;;;;;;;15.98;39.42;101220.44;5031863;28;1035;-46
2024/02/03 11:45:48;;;;;;;;;;;;;;;15.62;40.52;101214.53;5027785;28;1179;-42
2024/02/03 11:48:14;;;;;;;;;;;;;;;16.41;39.07;101206.84;5021083;28;2574;-43
2024/02/03 11:50:40;;;;;;;;;;;;;;;17.58;36.42;101202.34;5025682;28;1174;-46
2024/02/03 11:53:06;;;;;;;;;;;;;;;16.72;38.19;101202.41;5030140;28;1136;-43
2024/02/03 11:55:31;;;;;;;;;;;;;;;16.06;39.24;101195.31;5027663;28;1083;-44
2024/02/03 11:57:57;;;;;;;;;;;;;;;15.79;39.95;101194.44;5019491;28;1986;-44
2024/02/03 12:00:22;;;;;;;;;;;;;;;15.55;40.59;101195.53;5016086;28;1466;-42
2024/02/03 12:02:48;;;;;;;;;;;;;;;16.87;37.92;101181.63;5033506;28;1020;-44
2024/02/03 12:05:14;;;;;;;;;;;;;;;17.67;36.43;101189.72;5024787;28;1032;-43
2024/02/03 12:07:41;;;;;;;;;;;;;;;16.46;38.46;101170.38;5032861;28;1035;-42
2024/02/03 12:10:08;;;;;;;;;;;;;;;16.01;39.43;101170.56;5026068;28;1055;-42
2024/02/03 12:12:34;;;;;;;;;;;;;;;15.74;40.13;101171.38;5030518;28;1151;-41
2024/02/03 12:14:59;;;;;;;;;;;;;;;15.52;40.60;101168.66;5021631;28;1102;-46
2024/02/03 12:17:25;;;;;;;;;;;;;;;17.12;37.44;101160.94;5020522;28;2399;-43
2024/02/03 12:19:51;;;;;;;;;;;;;;;17.28;36.96;101165.41;5020439;28;1021;-45
2024/02/03 12:22:16;;;;;;;;;;;;;;;16.35;38.89;101159.31;5024360;28;1144;-44
2024/02/03 12:24:42;;;;;;;;;;;;;;;15.99;39.55;101149.97;5036489;28;1115;-44
2024/02/03 12:27:07;;;;;;;;;;;;;;;15.67;39.99;101151.56;5036464;28;1152;-48
2024/02/03 12:29:36;;;;;;;;;;;;;;;15.99;39.49;101145.31;5039758;28;1066;-46
2024/02/03 12:32:01;;;;;;;;;;;;;;;17.41;36.60;101148.38;5040105;28;992;-44
2024/02/03 12:34:27;;;;;;;;;;;;;;;17.21;36.86;101140.91;5029403;28;1241;-42
2024/02/03 12:36:52;;;;;;;;;;;;;;;16.35;38.86;101142.84;5037260;28;1123;-44
2024/02/03 12:39:18;;;;;;;;;;;;;;;15.97;39.49;101136.50;5039857;28;1977;-43
2024/02/03 12:41:43;;;;;;;;;;;;;;;15.72;39.94;101128.84;5038341;28;1035;-44